sensor_id;sensor_type;location;lat;lon;timestamp;pressure;altitude;pressure_sealevel;temperature
49593;BMP280;35499;51.482;4.264;2023-03-04T00:00:24;102759.59;;;6.51
49593;BMP280;35499;51.482;4.264;2023-03-04T00:02:49;102769.81;;;6.51
49593;BMP280;35499;51.482;4.264;2023-03-04T00:05:15;102763.78;;;6.49
49593;BMP280;35499;51.482;4.264;2023-03-04T00:07:40;102768.84;;;6.47
49593;BMP280;35499;51.482;4.264;2023-03-04T00:10:06;102777.34;;;6.48
49593;BMP280;35499;51.482;4.264;2023-03-04T00:12:31;102778.19;;;6.47
49593;BMP280;35499;51.482;4.264;2023-03-04T00:14:56;102783.28;;;6.47
49593;BMP280;35499;51.482;4.264;2023-03-04T00:17:22;102778.19;;;6.47
49593;BMP280;35499;51.482;4.264;2023-03-04T00:19:48;102780.75;;;6.47
49593;BMP280;35499;51.482;4.264;2023-03-04T00:22:13;102766.31;;;6.47
49593;BMP280;35499;51.482;4.264;2023-03-04T00:24:39;102776.50;;;6.47
49593;BMP280;35499;51.482;4.264;2023-03-04T00:27:04;102762.91;;;6.48
49593;BMP280;35499;51.482;4.264;2023-03-04T00:29:29;102765.50;;;6.50
49593;BMP280;35499;51.482;4.264;2023-03-04T00:31:55;102770.69;;;6.51
49593;BMP280;35499;51.482;4.264;2023-03-04T00:34:20;102762.22;;;6.54
49593;BMP280;35499;51.482;4.264;2023-03-04T00:36:46;102762.22;;;6.54
49593;BMP280;35499;51.482;4.264;2023-03-04T00:39:12;102770.81;;;6.56
49593;BMP280;35499;51.482;4.264;2023-03-04T00:41:37;102766.59;;;6.56
49593;BMP280;35499;51.482;4.264;2023-03-04T00:44:03;102765.72;;;6.56
49593;BMP280;35499;51.482;4.264;2023-03-04T00:46:29;102766.59;;;6.56
49593;BMP280;35499;51.482;4.264;2023-03-04T00:48:54;102770.88;;;6.57
49593;BMP280;35499;51.482;4.264;2023-03-04T00:51:20;102763.22;;;6.57
49593;BMP280;35499;51.482;4.264;2023-03-04T00:53:45;102763.25;;;6.59
49593;BMP280;35499;51.482;4.264;2023-03-04T00:56:11;102768.41;;;6.60
49593;BMP280;35499;51.482;4.264;2023-03-04T00:58:37;102772.69;;;6.61
49593;BMP280;35499;51.482;4.264;2023-03-04T01:01:05;102761.63;;;6.61
49593;BMP280;35499;51.482;4.264;2023-03-04T01:03:30;102771.03;;;6.61
49593;BMP280;35499;51.482;4.264;2023-03-04T01:05:56;102779.50;;;6.61
49593;BMP280;35499;51.482;4.264;2023-03-04T01:08:22;102770.16;;;6.61
49593;BMP280;35499;51.482;4.264;2023-03-04T01:10:47;102764.19;;;6.61
49593;BMP280;35499;51.482;4.264;2023-03-04T01:13:12;102773.50;;;6.60
49593;BMP280;35499;51.482;4.264;2023-03-04T01:15:38;102770.09;;;6.60
49593;BMP280;35499;51.482;4.264;2023-03-04T01:18:03;102765.00;;;6.60
49593;BMP280;35499;51.482;4.264;2023-03-04T01:20:28;102770.09;;;6.60
49593;BMP280;35499;51.482;4.264;2023-03-04T01:22:54;102768.41;;;6.60
49593;BMP280;35499;51.482;4.264;2023-03-04T01:25:19;102768.34;;;6.59
49593;BMP280;35499;51.482;4.264;2023-03-04T01:27:44;102756.47;;;6.59
49593;BMP280;35499;51.482;4.264;2023-03-04T01:30:11;102755.59;;;6.59
49593;BMP280;35499;51.482;4.264;2023-03-04T01:32:36;102757.31;;;6.60
49593;BMP280;35499;51.482;4.264;2023-03-04T01:35:02;102756.53;;;6.61
49593;BMP280;35499;51.482;4.264;2023-03-04T01:37:27;102761.63;;;6.61
49593;BMP280;35499;51.482;4.264;2023-03-04T01:39:52;102751.41;;;6.61
49593;BMP280;35499;51.482;4.264;2023-03-04T01:42:20;102757.38;;;6.61
49593;BMP280;35499;51.482;4.264;2023-03-04T01:44:46;102751.41;;;6.61
49593;BMP280;35499;51.482;4.264;2023-03-04T01:47:12;102749.72;;;6.61
49593;BMP280;35499;51.482;4.264;2023-03-04T01:49:37;102751.41;;;6.61
49593;BMP280;35499;51.482;4.264;2023-03-04T01:52:03;102745.44;;;6.60
49593;BMP280;35499;51.482;4.264;2023-03-04T01:54:28;102730.06;;;6.59
49593;BMP280;35499;51.482;4.264;2023-03-04T01:56:54;102734.28;;;6.58
49593;BMP280;35499;51.482;4.264;2023-03-04T01:59:22;102734.28;;;6.57
49593;BMP280;35499;51.482;4.264;2023-03-04T02:01:51;102726.63;;;6.57
49593;BMP280;35499;51.482;4.264;2023-03-04T02:04:20;102724.88;;;6.56
49593;BMP280;35499;51.482;4.264;2023-03-04T02:06:46;102719.78;;;6.56
49593;BMP280;35499;51.482;4.264;2023-03-04T02:09:13;102729.09;;;6.55
49593;BMP280;35499;51.482;4.264;2023-03-04T02:11:39;102719.66;;;6.53
49593;BMP280;35499;51.482;4.264;2023-03-04T02:14:05;102717.94;;;6.52
49593;BMP280;35499;51.482;4.264;2023-03-04T02:16:31;102716.22;;;6.51
49593;BMP280;35499;51.482;4.264;2023-03-04T02:18:57;102709.38;;;6.50
49593;BMP280;35499;51.482;4.264;2023-03-04T02:21:31;102711.03;;;6.49
49593;BMP280;35499;51.482;4.264;2023-03-04T02:26:31;102705.13;;;6.50
49593;BMP280;35499;51.482;4.264;2023-03-04T02:29:00;102698.34;;;6.51
49593;BMP280;35499;51.482;4.264;2023-03-04T02:31:40;102701.75;;;6.51
49593;BMP280;35499;51.482;4.264;2023-03-04T02:34:28;102700.91;;;6.51
49593;BMP280;35499;51.482;4.264;2023-03-04T02:36:54;102701.75;;;6.51
49593;BMP280;35499;51.482;4.264;2023-03-04T02:41:47;102689.81;;;6.50
49593;BMP280;35499;51.482;4.264;2023-03-04T02:44:18;102690.69;;;6.51
49593;BMP280;35499;51.482;4.264;2023-03-04T02:46:44;102690.69;;;6.51
49593;BMP280;35499;51.482;4.264;2023-03-04T02:49:09;102689.81;;;6.50
49593;BMP280;35499;51.482;4.264;2023-03-04T02:51:34;102689.81;;;6.50
49593;BMP280;35499;51.482;4.264;2023-03-04T02:54:00;102690.63;;;6.49
49593;BMP280;35499;51.482;4.264;2023-03-04T02:56:25;102689.75;;;6.49
49593;BMP280;35499;51.482;4.264;2023-03-04T02:58:50;102697.41;;;6.49
49593;BMP280;35499;51.482;4.264;2023-03-04T03:01:16;102681.22;;;6.47
49593;BMP280;35499;51.482;4.264;2023-03-04T03:03:41;102685.44;;;6.46
49593;BMP280;35499;51.482;4.264;2023-03-04T03:06:06;102682.03;;;6.46
49593;BMP280;35499;51.482;4.264;2023-03-04T03:08:32;102680.34;;;6.46
49593;BMP280;35499;51.482;4.264;2023-03-04T03:10:57;102679.53;;;6.47
49593;BMP280;35499;51.482;4.264;2023-03-04T03:13:22;102675.25;;;6.48
49593;BMP280;35499;51.482;4.264;2023-03-04T03:15:49;102677.00;;;6.49
49593;BMP280;35499;51.482;4.264;2023-03-04T03:18:14;102681.22;;;6.48
49593;BMP280;35499;51.482;4.264;2023-03-04T03:20:39;102677.00;;;6.49
49593;BMP280;35499;51.482;4.264;2023-03-04T03:23:06;102678.75;;;6.50
49593;BMP280;35499;51.482;4.264;2023-03-04T03:25:31;102672.81;;;6.51
49593;BMP280;35499;51.482;4.264;2023-03-04T03:27:56;102674.56;;;6.52
49593;BMP280;35499;51.482;4.264;2023-03-04T03:30:22;102673.72;;;6.53
49593;BMP280;35499;51.482;4.264;2023-03-04T03:32:47;102672.00;;;6.52
49593;BMP280;35499;51.482;4.264;2023-03-04T03:35:12;102677.13;;;6.52
49593;BMP280;35499;51.482;4.264;2023-03-04T03:37:38;102678.75;;;6.50
49593;BMP280;35499;51.482;4.264;2023-03-04T03:40:04;102677.91;;;6.51
49593;BMP280;35499;51.482;4.264;2023-03-04T03:42:29;102669.41;;;6.50
49593;BMP280;35499;51.482;4.264;2023-03-04T03:44:54;102669.41;;;6.50
49593;BMP280;35499;51.482;4.264;2023-03-04T03:47:20;102680.47;;;6.51
49593;BMP280;35499;51.482;4.264;2023-03-04T03:49:46;102679.59;;;6.50
49593;BMP280;35499;51.482;4.264;2023-03-04T03:52:11;102670.22;;;6.49
49593;BMP280;35499;51.482;4.264;2023-03-04T03:54:37;102682.09;;;6.49
49593;BMP280;35499;51.482;4.264;2023-03-04T03:57:02;102682.09;;;6.49
49593;BMP280;35499;51.482;4.264;2023-03-04T03:59:27;102683.78;;;6.48
49593;BMP280;35499;51.482;4.264;2023-03-04T04:01:53;102678.69;;;6.48
49593;BMP280;35499;51.482;4.264;2023-03-04T04:04:18;102684.63;;;6.47
49593;BMP280;35499;51.482;4.264;2023-03-04T04:06:43;102682.91;;;6.48
49593;BMP280;35499;51.482;4.264;2023-03-04T04:09:09;102687.22;;;6.49
49593;BMP280;35499;51.482;4.264;2023-03-04T04:11:36;102682.97;;;6.49
49593;BMP280;35499;51.482;4.264;2023-03-04T04:14:01;102684.66;;;6.49
49593;BMP280;35499;51.482;4.264;2023-03-04T04:16:26;102683.84;;;6.50
49593;BMP280;35499;51.482;4.264;2023-03-04T04:18:51;102677.88;;;6.49
49593;BMP280;35499;51.482;4.264;2023-03-04T04:21:17;102681.28;;;6.50
49593;BMP280;35499;51.482;4.264;2023-03-04T04:23:42;102682.97;;;6.49
49593;BMP280;35499;51.482;4.264;2023-03-04T04:26:07;102677.88;;;6.49
49593;BMP280;35499;51.482;4.264;2023-03-04T04:28:33;102682.97;;;6.49
49593;BMP280;35499;51.482;4.264;2023-03-04T04:30:58;102680.38;;;6.48
49593;BMP280;35499;51.482;4.264;2023-03-04T04:33:24;102679.47;;;6.46
49593;BMP280;35499;51.482;4.264;2023-03-04T04:35:49;102689.69;;;6.46
49593;BMP280;35499;51.482;4.264;2023-03-04T04:38:14;102679.47;;;6.46
49593;BMP280;35499;51.482;4.264;2023-03-04T04:40:40;102685.44;;;6.46
49593;BMP280;35499;51.482;4.264;2023-03-04T04:43:07;102687.13;;;6.46
49593;BMP280;35499;51.482;4.264;2023-03-04T04:45:32;102686.31;;;6.47
49593;BMP280;35499;51.482;4.264;2023-03-04T04:47:58;102685.38;;;6.45
49593;BMP280;35499;51.482;4.264;2023-03-04T04:50:24;102693.03;;;6.45
49593;BMP280;35499;51.482;4.264;2023-03-04T04:52:49;102689.63;;;6.44
49593;BMP280;35499;51.482;4.264;2023-03-04T04:55:16;102693.00;;;6.43
49593;BMP280;35499;51.482;4.264;2023-03-04T04:57:41;102694.66;;;6.42
49593;BMP280;35499;51.482;4.264;2023-03-04T05:00:07;102686.94;;;6.40
49593;BMP280;35499;51.482;4.264;2023-03-04T05:02:34;102694.66;;;6.42
49593;BMP280;35499;51.482;4.264;2023-03-04T05:05:03;102688.66;;;6.41
49593;BMP280;35499;51.482;4.264;2023-03-04T05:07:29;102693.78;;;6.41
49593;BMP280;35499;51.482;4.264;2023-03-04T05:09:54;102690.34;;;6.41
49593;BMP280;35499;51.482;4.264;2023-03-04T05:12:20;102692.03;;;6.40
49593;BMP280;35499;51.482;4.264;2023-03-04T05:14:45;102692.03;;;6.40
49593;BMP280;35499;51.482;4.264;2023-03-04T05:17:10;102695.41;;;6.39
49593;BMP280;35499;51.482;4.264;2023-03-04T05:19:36;102694.53;;;6.39
49593;BMP280;35499;51.482;4.264;2023-03-04T05:22:01;102690.28;;;6.39
49593;BMP280;35499;51.482;4.264;2023-03-04T05:24:27;102683.44;;;6.38
49593;BMP280;35499;51.482;4.264;2023-03-04T05:26:52;102692.78;;;6.38
49593;BMP280;35499;51.482;4.264;2023-03-04T05:29:17;102691.97;;;6.37
49593;BMP280;35499;51.482;4.264;2023-03-04T05:31:43;102688.53;;;6.37
49593;BMP280;35499;51.482;4.264;2023-03-04T05:34:08;102697.91;;;6.38
49593;BMP280;35499;51.482;4.264;2023-03-04T05:36:33;102693.63;;;6.37
49593;BMP280;35499;51.482;4.264;2023-03-04T05:38:58;102694.50;;;6.37
49593;BMP280;35499;51.482;4.264;2023-03-04T05:41:24;102691.97;;;6.37
49593;BMP280;35499;51.482;4.264;2023-03-04T05:43:50;102691.97;;;6.37
49593;BMP280;35499;51.482;4.264;2023-03-04T05:46:17;102694.50;;;6.37
49593;BMP280;35499;51.482;4.264;2023-03-04T05:48:42;102702.03;;;6.34
49593;BMP280;35499;51.482;4.264;2023-03-04T05:51:08;102694.38;;;6.34
49593;BMP280;35499;51.482;4.264;2023-03-04T05:53:34;102696.94;;;6.34
49593;BMP280;35499;51.482;4.264;2023-03-04T05:56:06;102698.69;;;6.35
49593;BMP280;35499;51.482;4.264;2023-03-04T05:58:32;102693.56;;;6.35
49593;BMP280;35499;51.482;4.264;2023-03-04T06:01:00;102698.69;;;6.35
49593;BMP280;35499;51.482;4.264;2023-03-04T06:03:26;102698.69;;;6.35
49593;BMP280;35499;51.482;4.264;2023-03-04T06:05:53;102700.31;;;6.33
49593;BMP280;35499;51.482;4.264;2023-03-04T06:08:18;102704.50;;;6.31
49593;BMP280;35499;51.482;4.264;2023-03-04T06:10:44;102705.31;;;6.30
49593;BMP280;35499;51.482;4.264;2023-03-04T06:13:09;102696.84;;;6.31
49593;BMP280;35499;51.482;4.264;2023-03-04T06:15:35;102691.75;;;6.31
49593;BMP280;35499;51.482;4.264;2023-03-04T06:18:00;102701.16;;;6.32
49593;BMP280;35499;51.482;4.264;2023-03-04T06:20:25;102701.97;;;6.31
49593;BMP280;35499;51.482;4.264;2023-03-04T06:22:51;102701.97;;;6.31
49593;BMP280;35499;51.482;4.264;2023-03-04T06:25:16;102703.69;;;6.32
49593;BMP280;35499;51.482;4.264;2023-03-04T06:27:42;102703.69;;;6.32
49593;BMP280;35499;51.482;4.264;2023-03-04T06:30:08;102695.19;;;6.33
49593;BMP280;35499;51.482;4.264;2023-03-04T06:32:33;102696.06;;;6.34
49593;BMP280;35499;51.482;4.264;2023-03-04T06:34:59;102692.66;;;6.33
49593;BMP280;35499;51.482;4.264;2023-03-04T06:37:24;102696.94;;;6.34
49593;BMP280;35499;51.482;4.264;2023-03-04T06:39:49;102700.31;;;6.33
49593;BMP280;35499;51.482;4.264;2023-03-04T06:42:14;102704.59;;;6.34
49593;BMP280;35499;51.482;4.264;2023-03-04T06:44:40;102707.16;;;6.34
49593;BMP280;35499;51.482;4.264;2023-03-04T06:47:05;102704.59;;;6.34
49593;BMP280;35499;51.482;4.264;2023-03-04T06:49:31;102707.16;;;6.34
49593;BMP280;35499;51.482;4.264;2023-03-04T06:51:56;102706.34;;;6.35
49593;BMP280;35499;51.482;4.264;2023-03-04T06:54:22;102709.81;;;6.37
49593;BMP280;35499;51.482;4.264;2023-03-04T06:56:47;102705.59;;;6.39
49593;BMP280;35499;51.482;4.264;2023-03-04T06:59:13;102719.28;;;6.41
49593;BMP280;35499;51.482;4.264;2023-03-04T07:01:38;102715.94;;;6.42
49593;BMP280;35499;51.482;4.264;2023-03-04T07:04:03;102721.88;;;6.43
49593;BMP280;35499;51.482;4.264;2023-03-04T07:06:29;102719.31;;;6.43
49593;BMP280;35499;51.482;4.264;2023-03-04T07:08:55;102717.63;;;6.43
49593;BMP280;35499;51.482;4.264;2023-03-04T07:11:21;102719.38;;;6.44
49593;BMP280;35499;51.482;4.264;2023-03-04T07:13:47;102725.34;;;6.44
49593;BMP280;35499;51.482;4.264;2023-03-04T07:16:15;102738.16;;;6.46
49593;BMP280;35499;51.482;4.264;2023-03-04T07:18:42;102733.06;;;6.46
49593;BMP280;35499;51.482;4.264;2023-03-04T07:21:08;102731.31;;;6.45
49593;BMP280;35499;51.482;4.264;2023-03-04T07:23:33;102746.63;;;6.45
49593;BMP280;35499;51.482;4.264;2023-03-04T07:25:59;102745.81;;;6.46
49593;BMP280;35499;51.482;4.264;2023-03-04T07:28:26;102740.78;;;6.47
49593;BMP280;35499;51.482;4.264;2023-03-04T07:30:51;102746.72;;;6.48
49593;BMP280;35499;51.482;4.264;2023-03-04T07:33:17;102745.91;;;6.49
49593;BMP280;35499;51.482;4.264;2023-03-04T07:35:43;102751.88;;;6.49
49593;BMP280;35499;51.482;4.264;2023-03-04T07:38:08;102749.38;;;6.51
49593;BMP280;35499;51.482;4.264;2023-03-04T07:40:33;102756.19;;;6.50
49593;BMP280;35499;51.482;4.264;2023-03-04T07:42:59;102761.28;;;6.50
49593;BMP280;35499;51.482;4.264;2023-03-04T07:45:25;102753.69;;;6.52
49593;BMP280;35499;51.482;4.264;2023-03-04T07:47:50;102755.38;;;6.53
49593;BMP280;35499;51.482;4.264;2023-03-04T07:50:17;102757.91;;;6.51
49593;BMP280;35499;51.482;4.264;2023-03-04T07:52:45;102757.13;;;6.54
49593;BMP280;35499;51.482;4.264;2023-03-04T07:55:13;102760.59;;;6.56
49593;BMP280;35499;51.482;4.264;2023-03-04T07:57:40;102764.94;;;6.58
49593;BMP280;35499;51.482;4.264;2023-03-04T08:00:06;102770.97;;;6.60
49593;BMP280;35499;51.482;4.264;2023-03-04T08:02:32;102774.47;;;6.63
49593;BMP280;35499;51.482;4.264;2023-03-04T08:04:57;102771.97;;;6.65
49593;BMP280;35499;51.482;4.264;2023-03-04T08:07:22;102777.22;;;6.69
49593;BMP280;35499;51.482;4.264;2023-03-04T08:09:48;102773.94;;;6.73
49593;BMP280;35499;51.482;4.264;2023-03-04T08:12:13;102768.13;;;6.77
49593;BMP280;35499;51.482;4.264;2023-03-04T08:14:39;102772.50;;;6.81
49593;BMP280;35499;51.482;4.264;2023-03-04T08:17:04;102768.28;;;6.83
49593;BMP280;35499;51.482;4.264;2023-03-04T08:19:29;102772.66;;;6.85
49593;BMP280;35499;51.482;4.264;2023-03-04T08:21:55;102770.22;;;6.90
49593;BMP280;35499;51.482;4.264;2023-03-04T08:24:20;102771.19;;;6.93
49593;BMP280;35499;51.482;4.264;2023-03-04T08:26:47;102763.66;;;6.97
49593;BMP280;35499;51.482;4.264;2023-03-04T08:29:16;102777.28;;;6.98
49593;BMP280;35499;51.482;4.264;2023-03-04T08:31:41;102773.16;;;7.01
49593;BMP280;35499;51.482;4.264;2023-03-04T08:34:08;102774.06;;;7.03
49593;BMP280;35499;51.482;4.264;2023-03-04T08:36:35;102771.63;;;7.06
49593;BMP280;35499;51.482;4.264;2023-03-04T08:39:01;102772.56;;;7.10
49593;BMP280;35499;51.482;4.264;2023-03-04T08:41:26;102776.06;;;7.13
49593;BMP280;35499;51.482;4.264;2023-03-04T08:43:54;102765.13;;;7.17
49593;BMP280;35499;51.482;4.264;2023-03-04T08:46:19;102767.75;;;7.20
49593;BMP280;35499;51.482;4.264;2023-03-04T08:48:45;102766.13;;;7.22
49593;BMP280;35499;51.482;4.264;2023-03-04T08:51:12;102766.22;;;7.25
49593;BMP280;35499;51.482;4.264;2023-03-04T08:53:38;102767.94;;;7.26
49593;BMP280;35499;51.482;4.264;2023-03-04T08:56:04;102767.22;;;7.30
49593;BMP280;35499;51.482;4.264;2023-03-04T08:58:30;102771.69;;;7.36
49593;BMP280;35499;51.482;4.264;2023-03-04T09:00:58;102762.41;;;7.40
49593;BMP280;35499;51.482;4.264;2023-03-04T09:03:23;102771.13;;;7.46
49593;BMP280;35499;51.482;4.264;2023-03-04T09:05:49;102768.75;;;7.52
49593;BMP280;35499;51.482;4.264;2023-03-04T09:08:15;102773.13;;;7.57
49593;BMP280;35499;51.482;4.264;2023-03-04T09:10:40;102774.19;;;7.64
49593;BMP280;35499;51.482;4.264;2023-03-04T09:13:06;102768.31;;;7.66
49593;BMP280;35499;51.482;4.264;2023-03-04T09:15:32;102768.38;;;7.69
49593;BMP280;35499;51.482;4.264;2023-03-04T09:18:01;102775.34;;;7.74
49593;BMP280;35499;51.482;4.264;2023-03-04T09:20:28;102772.97;;;7.80
49593;BMP280;35499;51.482;4.264;2023-03-04T09:22:53;102763.06;;;7.92
49593;BMP280;35499;51.482;4.264;2023-03-04T09:25:19;102764.59;;;8.17
49593;BMP280;35499;51.482;4.264;2023-03-04T09:27:44;102761.72;;;8.37
49593;BMP280;35499;51.482;4.264;2023-03-04T09:30:10;102756.94;;;8.50
49593;BMP280;35499;51.482;4.264;2023-03-04T09:32:36;102761.38;;;8.57
49593;BMP280;35499;51.482;4.264;2023-03-04T09:35:01;102761.53;;;8.63
49593;BMP280;35499;51.482;4.264;2023-03-04T09:37:26;102752.59;;;8.82
49593;BMP280;35499;51.482;4.264;2023-03-04T09:39:53;102745.94;;;9.28
49593;BMP280;35499;51.482;4.264;2023-03-04T09:42:24;102746.28;;;9.84
49593;BMP280;35499;51.482;4.264;2023-03-04T09:44:52;102743.91;;;10.42
49593;BMP280;35499;51.482;4.264;2023-03-04T09:47:19;102741.34;;;10.94
49593;BMP280;35499;51.482;4.264;2023-03-04T09:49:55;102732.94;;;11.70
49593;BMP280;35499;51.482;4.264;2023-03-04T09:52:36;102730.75;;;12.07
49593;BMP280;35499;51.482;4.264;2023-03-04T09:55:42;102728.97;;;12.00
49593;BMP280;35499;51.482;4.264;2023-03-04T10:04:39;102723.97;;;12.16
49593;BMP280;35499;51.482;4.264;2023-03-04T10:07:16;102724.75;;;12.08
49593;BMP280;35499;51.482;4.264;2023-03-04T10:09:47;102727.91;;;11.79
49593;BMP280;35499;51.482;4.264;2023-03-04T10:12:20;102730.91;;;11.45
49593;BMP280;35499;51.482;4.264;2023-03-04T10:14:49;102730.38;;;11.05
49593;BMP280;35499;51.482;4.264;2023-03-04T10:17:20;102739.06;;;10.58
49593;BMP280;35499;51.482;4.264;2023-03-04T10:20:03;102736.78;;;10.25
49593;BMP280;35499;51.482;4.264;2023-03-04T10:22:32;102746.72;;;10.06
49593;BMP280;35499;51.482;4.264;2023-03-04T10:25:28;102736.31;;;9.99
49593;BMP280;35499;51.482;4.264;2023-03-04T10:30:54;102739.84;;;10.05
49593;BMP280;35499;51.482;4.264;2023-03-04T10:33:32;102737.78;;;10.33
49593;BMP280;35499;51.482;4.264;2023-03-04T10:38:24;102729.25;;;11.49
49593;BMP280;35499;51.482;4.264;2023-03-04T10:40:50;102721.31;;;12.07
49593;BMP280;35499;51.482;4.264;2023-03-04T10:43:20;102709.59;;;12.41
49593;BMP280;35499;51.482;4.264;2023-03-04T10:45:46;102704.44;;;12.41
49593;BMP280;35499;51.482;4.264;2023-03-04T10:48:21;102707.72;;;12.23
49593;BMP280;35499;51.482;4.264;2023-03-04T10:50:47;102707.53;;;12.02
49593;BMP280;35499;51.482;4.264;2023-03-04T10:53:29;102713.28;;;11.75
49593;BMP280;35499;51.482;4.264;2023-03-04T10:55:57;102706.19;;;11.58
49593;BMP280;35499;51.482;4.264;2023-03-04T10:58:23;102706.84;;;11.40
49593;BMP280;35499;51.482;4.264;2023-03-04T11:01:03;102715.13;;;11.20
49593;BMP280;35499;51.482;4.264;2023-03-04T11:03:32;102710.50;;;10.95
49593;BMP280;35499;51.482;4.264;2023-03-04T11:06:23;102712.00;;;10.80
49593;BMP280;35499;51.482;4.264;2023-03-04T11:08:54;102709.31;;;10.73
49593;BMP280;35499;51.482;4.264;2023-03-04T11:11:43;102711.06;;;10.75
49593;BMP280;35499;51.482;4.264;2023-03-04T11:14:43;102702.34;;;10.66
49593;BMP280;35499;51.482;4.264;2023-03-04T11:17:26;102699.75;;;10.63
49593;BMP280;35499;51.482;4.264;2023-03-04T11:19:56;102694.34;;;10.47
49593;BMP280;35499;51.482;4.264;2023-03-04T11:22:27;102698.38;;;10.32
49593;BMP280;35499;51.482;4.264;2023-03-04T11:25:03;102698.97;;;10.17
49593;BMP280;35499;51.482;4.264;2023-03-04T11:27:37;102689.38;;;10.07
49593;BMP280;35499;51.482;4.264;2023-03-04T11:30:28;102685.72;;;9.93
49593;BMP280;35499;51.482;4.264;2023-03-04T11:33:04;102682.94;;;9.82
49593;BMP280;35499;51.482;4.264;2023-03-04T11:35:41;102681.16;;;9.78
49593;BMP280;35499;51.482;4.264;2023-03-04T11:38:16;102681.34;;;9.88
49593;BMP280;35499;51.482;4.264;2023-03-04T11:40:53;102675.72;;;10.08
49593;BMP280;35499;51.482;4.264;2023-03-04T11:43:39;102669.16;;;10.24
49593;BMP280;35499;51.482;4.264;2023-03-04T12:00:03;102660.78;;;9.86
49593;BMP280;35499;51.482;4.264;2023-03-04T12:05:17;102652.63;;;9.63
49593;BMP280;35499;51.482;4.264;2023-03-04T12:07:56;102647.38;;;9.57
49593;BMP280;35499;51.482;4.264;2023-03-04T12:10:35;102647.34;;;9.54
49593;BMP280;35499;51.482;4.264;2023-03-04T12:24:10;102646.47;;;9.11
49593;BMP280;35499;51.482;4.264;2023-03-04T12:26:57;102641.00;;;8.94
49593;BMP280;35499;51.482;4.264;2023-03-04T12:29:46;102648.47;;;8.84
49593;BMP280;35499;51.482;4.264;2023-03-04T12:32:26;102642.34;;;8.78
49593;BMP280;35499;51.482;4.264;2023-03-04T12:40:37;102641.53;;;8.41
49593;BMP280;35499;51.482;4.264;2023-03-04T12:43:18;102636.28;;;8.37
49593;BMP280;35499;51.482;4.264;2023-03-04T12:48:58;102630.47;;;8.44
49593;BMP280;35499;51.482;4.264;2023-03-04T12:51:49;102629.84;;;8.54
49593;BMP280;35499;51.482;4.264;2023-03-04T12:54:34;102629.25;;;8.65
49593;BMP280;35499;51.482;4.264;2023-03-04T12:57:12;102625.34;;;8.81
49593;BMP280;35499;51.482;4.264;2023-03-04T13:08:20;102606.72;;;9.76
49593;BMP280;35499;51.482;4.264;2023-03-04T13:10:49;102587.56;;;10.65
49593;BMP280;35499;51.482;4.264;2023-03-04T13:14:00;102578.69;;;11.94
49593;BMP280;35499;51.482;4.264;2023-03-04T13:16:30;102566.50;;;13.13
49593;BMP280;35499;51.482;4.264;2023-03-04T13:18:57;102551.94;;;14.19
49593;BMP280;35499;51.482;4.264;2023-03-04T13:21:28;102548.28;;;14.84
49593;BMP280;35499;51.482;4.264;2023-03-04T13:23:56;102548.16;;;15.12
49593;BMP280;35499;51.482;4.264;2023-03-04T13:28:55;102544.91;;;14.60
49593;BMP280;35499;51.482;4.264;2023-03-04T13:31:56;102549.38;;;13.63
49593;BMP280;35499;51.482;4.264;2023-03-04T13:37:39;102561.63;;;12.09
49593;BMP280;35499;51.482;4.264;2023-03-04T13:42:47;102562.66;;;11.31
49593;BMP280;35499;51.482;4.264;2023-03-04T13:45:34;102552.88;;;11.02
49593;BMP280;35499;51.482;4.264;2023-03-04T13:48:00;102555.22;;;10.82
49593;BMP280;35499;51.482;4.264;2023-03-04T13:50:39;102552.34;;;10.58
49593;BMP280;35499;51.482;4.264;2023-03-04T13:53:39;102553.91;;;10.48
49593;BMP280;35499;51.482;4.264;2023-03-04T13:56:55;102558.25;;;10.50
49593;BMP280;35499;51.482;4.264;2023-03-04T14:01:33;102547.97;;;10.52
49593;BMP280;35499;51.482;4.264;2023-03-04T14:04:00;102549.63;;;10.47
49593;BMP280;35499;51.482;4.264;2023-03-04T14:06:30;102547.81;;;10.38
49593;BMP280;35499;51.482;4.264;2023-03-04T14:08:56;102551.13;;;10.30
49593;BMP280;35499;51.482;4.264;2023-03-04T14:11:26;102547.44;;;10.14
49593;BMP280;35499;51.482;4.264;2023-03-04T14:13:53;102543.75;;;9.97
49593;BMP280;35499;51.482;4.264;2023-03-04T14:16:25;102539.19;;;9.79
49593;BMP280;35499;51.482;4.264;2023-03-04T14:19:02;102533.00;;;9.68
49593;BMP280;35499;51.482;4.264;2023-03-04T14:21:29;102539.78;;;9.65
49593;BMP280;35499;51.482;4.264;2023-03-04T14:24:07;102534.69;;;9.66
49593;BMP280;35499;51.482;4.264;2023-03-04T14:26:33;102529.56;;;9.66
49593;BMP280;35499;51.482;4.264;2023-03-04T14:28:59;102527.72;;;9.59
49593;BMP280;35499;51.482;4.264;2023-03-04T14:31:28;102532.72;;;9.52
49593;BMP280;35499;51.482;4.264;2023-03-04T14:33:58;102537.75;;;9.45
49593;BMP280;35499;51.482;4.264;2023-03-04T14:36:31;102533.28;;;9.35
49593;BMP280;35499;51.482;4.264;2023-03-04T14:39:03;102530.69;;;9.33
49593;BMP280;35499;51.482;4.264;2023-03-04T14:44:02;102530.72;;;9.35
49593;BMP280;35499;51.482;4.264;2023-03-04T14:46:33;102532.50;;;9.39
49593;BMP280;35499;51.482;4.264;2023-03-04T14:49:00;102521.59;;;9.51
49593;BMP280;35499;51.482;4.264;2023-03-04T14:51:45;102519.44;;;9.75
49593;BMP280;35499;51.482;4.264;2023-03-04T14:56:55;102513.72;;;9.90
49593;BMP280;35499;51.482;4.264;2023-03-04T14:59:33;102508.34;;;9.76
49593;BMP280;35499;51.482;4.264;2023-03-04T15:04:42;102520.50;;;9.38
49593;BMP280;35499;51.482;4.264;2023-03-04T15:07:15;102512.63;;;9.26
49593;BMP280;35499;51.482;4.264;2023-03-04T15:09:41;102506.56;;;9.21
49593;BMP280;35499;51.482;4.264;2023-03-04T15:12:21;102509.16;;;9.24
49593;BMP280;35499;51.482;4.264;2023-03-04T15:14:50;102510.25;;;9.36
49593;BMP280;35499;51.482;4.264;2023-03-04T15:22:35;102491.84;;;9.62
49593;BMP280;35499;51.482;4.264;2023-03-04T15:25:20;102495.34;;;9.67
49593;BMP280;35499;51.482;4.264;2023-03-04T15:27:47;102486.03;;;9.70
49593;BMP280;35499;51.482;4.264;2023-03-04T15:30:22;102490.31;;;9.73
49593;BMP280;35499;51.482;4.264;2023-03-04T15:32:49;102488.66;;;9.75
49593;BMP280;35499;51.482;4.264;2023-03-04T15:35:16;102489.41;;;9.69
49593;BMP280;35499;51.482;4.264;2023-03-04T15:37:42;102492.66;;;9.58
49593;BMP280;35499;51.482;4.264;2023-03-04T15:40:38;102478.72;;;9.43